sensor_id;sensor_type;location;lat;lon;timestamp;P1;durP1;ratioP1;P2;durP2;ratioP2
11008;SDS011;5557;51.670;7.788;2023-04-19T00:01:29;10.70;;;9.70;;
11008;SDS011;5557;51.670;7.788;2023-04-19T00:03:57;11.77;;;9.87;;
11008;SDS011;5557;51.670;7.788;2023-04-19T00:06:24;12.10;;;10.27;;
11008;SDS011;5557;51.670;7.788;2023-04-19T00:08:51;9.77;;;8.83;;
11008;SDS011;5557;51.670;7.788;2023-04-19T00:11:18;9.57;;;8.63;;
11008;SDS011;5557;51.670;7.788;2023-04-19T00:13:45;9.20;;;8.40;;
11008;SDS011;5557;51.670;7.788;2023-04-19T00:16:12;9.50;;;8.60;;
11008;SDS011;5557;51.670;7.788;2023-04-19T00:18:39;10.87;;;9.87;;
11008;SDS011;5557;51.670;7.788;2023-04-19T00:21:07;10.90;;;9.43;;
11008;SDS011;5557;51.670;7.788;2023-04-19T00:23:34;9.87;;;9.07;;
11008;SDS011;5557;51.670;7.788;2023-04-19T00:26:01;14.53;;;9.67;;
11008;SDS011;5557;51.670;7.788;2023-04-19T00:28:29;9.00;;;8.10;;
11008;SDS011;5557;51.670;7.788;2023-04-19T00:30:56;9.10;;;8.30;;
11008;SDS011;5557;51.670;7.788;2023-04-19T00:33:23;8.33;;;7.70;;
11008;SDS011;5557;51.670;7.788;2023-04-19T00:35:50;7.27;;;6.73;;
11008;SDS011;5557;51.670;7.788;2023-04-19T00:38:17;7.77;;;7.27;;
11008;SDS011;5557;51.670;7.788;2023-04-19T00:40:44;7.70;;;7.10;;
11008;SDS011;5557;51.670;7.788;2023-04-19T00:43:15;7.47;;;6.97;;
11008;SDS011;5557;51.670;7.788;2023-04-19T00:45:45;7.93;;;5.53;;
11008;SDS011;5557;51.670;7.788;2023-04-19T00:48:14;6.97;;;6.43;;
11008;SDS011;5557;51.670;7.788;2023-04-19T00:50:42;6.37;;;5.80;;
11008;SDS011;5557;51.670;7.788;2023-04-19T00:53:10;11.97;;;7.20;;
11008;SDS011;5557;51.670;7.788;2023-04-19T00:55:37;6.60;;;6.10;;
11008;SDS011;5557;51.670;7.788;2023-04-19T00:58:06;6.10;;;5.70;;
11008;SDS011;5557;51.670;7.788;2023-04-19T01:00:34;6.87;;;6.10;;
11008;SDS011;5557;51.670;7.788;2023-04-19T01:03:02;6.57;;;6.07;;
11008;SDS011;5557;51.670;7.788;2023-04-19T01:05:30;7.23;;;6.60;;
11008;SDS011;5557;51.670;7.788;2023-04-19T01:07:57;6.50;;;5.90;;
11008;SDS011;5557;51.670;7.788;2023-04-19T01:10:24;10.03;;;5.30;;
11008;SDS011;5557;51.670;7.788;2023-04-19T01:12:51;7.57;;;6.10;;
11008;SDS011;5557;51.670;7.788;2023-04-19T01:15:18;7.50;;;5.70;;
11008;SDS011;5557;51.670;7.788;2023-04-19T01:17:45;6.53;;;5.97;;
11008;SDS011;5557;51.670;7.788;2023-04-19T01:20:12;7.03;;;6.40;;
11008;SDS011;5557;51.670;7.788;2023-04-19T01:22:39;5.73;;;5.37;;
11008;SDS011;5557;51.670;7.788;2023-04-19T01:25:06;6.63;;;6.10;;
11008;SDS011;5557;51.670;7.788;2023-04-19T01:27:34;7.17;;;6.00;;
11008;SDS011;5557;51.670;7.788;2023-04-19T01:30:01;6.33;;;5.87;;
11008;SDS011;5557;51.670;7.788;2023-04-19T01:32:28;6.10;;;5.70;;
11008;SDS011;5557;51.670;7.788;2023-04-19T01:34:55;6.80;;;5.83;;
11008;SDS011;5557;51.670;7.788;2023-04-19T01:37:25;6.30;;;5.90;;
11008;SDS011;5557;51.670;7.788;2023-04-19T01:39:52;6.83;;;6.33;;
11008;SDS011;5557;51.670;7.788;2023-04-19T01:42:19;6.83;;;6.33;;
11008;SDS011;5557;51.670;7.788;2023-04-19T01:44:48;6.57;;;5.80;;
11008;SDS011;5557;51.670;7.788;2023-04-19T01:47:15;6.13;;;5.53;;
11008;SDS011;5557;51.670;7.788;2023-04-19T01:49:42;7.00;;;5.90;;
11008;SDS011;5557;51.670;7.788;2023-04-19T01:52:09;6.00;;;5.60;;
11008;SDS011;5557;51.670;7.788;2023-04-19T01:54:36;6.00;;;5.53;;
11008;SDS011;5557;51.670;7.788;2023-04-19T01:57:02;7.30;;;6.80;;
11008;SDS011;5557;51.670;7.788;2023-04-19T01:59:29;7.57;;;6.83;;
11008;SDS011;5557;51.670;7.788;2023-04-19T02:01:56;7.03;;;6.03;;
11008;SDS011;5557;51.670;7.788;2023-04-19T02:04:23;6.80;;;6.10;;
11008;SDS011;5557;51.670;7.788;2023-04-19T02:06:50;6.27;;;5.77;;
11008;SDS011;5557;51.670;7.788;2023-04-19T02:09:17;7.07;;;6.47;;
11008;SDS011;5557;51.670;7.788;2023-04-19T02:11:44;5.77;;;4.90;;
11008;SDS011;5557;51.670;7.788;2023-04-19T02:14:11;5.83;;;5.33;;
11008;SDS011;5557;51.670;7.788;2023-04-19T02:16:38;5.40;;;5.07;;
11008;SDS011;5557;51.670;7.788;2023-04-19T02:19:06;5.33;;;4.90;;
11008;SDS011;5557;51.670;7.788;2023-04-19T02:21:34;5.73;;;5.20;;
11008;SDS011;5557;51.670;7.788;2023-04-19T02:24:01;5.47;;;5.17;;
11008;SDS011;5557;51.670;7.788;2023-04-19T02:26:28;5.67;;;5.37;;
11008;SDS011;5557;51.670;7.788;2023-04-19T02:28:55;7.07;;;6.57;;
11008;SDS011;5557;51.670;7.788;2023-04-19T02:31:22;5.50;;;5.20;;
11008;SDS011;5557;51.670;7.788;2023-04-19T02:33:49;7.73;;;5.47;;
11008;SDS011;5557;51.670;7.788;2023-04-19T02:36:16;6.70;;;6.10;;
11008;SDS011;5557;51.670;7.788;2023-04-19T02:38:43;6.83;;;6.33;;
11008;SDS011;5557;51.670;7.788;2023-04-19T02:41:09;6.70;;;6.10;;
11008;SDS011;5557;51.670;7.788;2023-04-19T02:43:36;6.27;;;5.87;;
11008;SDS011;5557;51.670;7.788;2023-04-19T02:46:03;5.77;;;5.30;;
11008;SDS011;5557;51.670;7.788;2023-04-19T02:48:31;6.07;;;5.70;;
11008;SDS011;5557;51.670;7.788;2023-04-19T02:50:58;6.20;;;5.60;;
11008;SDS011;5557;51.670;7.788;2023-04-19T02:53:25;5.80;;;5.30;;
11008;SDS011;5557;51.670;7.788;2023-04-19T02:55:52;6.83;;;6.30;;
11008;SDS011;5557;51.670;7.788;2023-04-19T02:58:19;7.77;;;6.10;;
11008;SDS011;5557;51.670;7.788;2023-04-19T03:00:46;6.50;;;5.97;;
11008;SDS011;5557;51.670;7.788;2023-04-19T03:03:13;6.43;;;5.93;;
11008;SDS011;5557;51.670;7.788;2023-04-19T03:05:40;6.07;;;5.67;;
11008;SDS011;5557;51.670;7.788;2023-04-19T03:08:07;6.37;;;5.60;;
11008;SDS011;5557;51.670;7.788;2023-04-19T03:10:36;7.43;;;6.80;;
11008;SDS011;5557;51.670;7.788;2023-04-19T03:13:02;6.83;;;6.33;;
11008;SDS011;5557;51.670;7.788;2023-04-19T03:15:29;7.00;;;6.40;;
11008;SDS011;5557;51.670;7.788;2023-04-19T03:17:56;6.13;;;5.77;;
11008;SDS011;5557;51.670;7.788;2023-04-19T03:20:23;7.00;;;6.43;;
11008;SDS011;5557;51.670;7.788;2023-04-19T03:22:51;7.73;;;7.00;;
11008;SDS011;5557;51.670;7.788;2023-04-19T03:25:18;10.37;;;7.23;;
11008;SDS011;5557;51.670;7.788;2023-04-19T03:27:45;7.13;;;6.53;;
11008;SDS011;5557;51.670;7.788;2023-04-19T03:30:13;7.07;;;6.47;;
11008;SDS011;5557;51.670;7.788;2023-04-19T03:32:40;7.10;;;6.50;;
11008;SDS011;5557;51.670;7.788;2023-04-19T03:35:08;8.60;;;7.17;;
11008;SDS011;5557;51.670;7.788;2023-04-19T03:37:35;8.23;;;7.53;;
11008;SDS011;5557;51.670;7.788;2023-04-19T03:40:02;8.97;;;8.10;;
11008;SDS011;5557;51.670;7.788;2023-04-19T03:42:29;7.27;;;6.67;;
11008;SDS011;5557;51.670;7.788;2023-04-19T03:44:56;6.33;;;5.93;;
11008;SDS011;5557;51.670;7.788;2023-04-19T03:47:23;7.70;;;7.07;;
11008;SDS011;5557;51.670;7.788;2023-04-19T03:49:50;8.37;;;7.60;;
11008;SDS011;5557;51.670;7.788;2023-04-19T03:52:17;6.83;;;6.07;;
11008;SDS011;5557;51.670;7.788;2023-04-19T03:54:44;6.87;;;6.37;;
11008;SDS011;5557;51.670;7.788;2023-04-19T03:57:12;6.93;;;6.47;;
11008;SDS011;5557;51.670;7.788;2023-04-19T03:59:40;7.50;;;6.43;;
11008;SDS011;5557;51.670;7.788;2023-04-19T04:02:07;7.37;;;6.80;;
11008;SDS011;5557;51.670;7.788;2023-04-19T04:04:34;7.33;;;6.47;;
11008;SDS011;5557;51.670;7.788;2023-04-19T04:07:02;7.60;;;6.90;;
11008;SDS011;5557;51.670;7.788;2023-04-19T04:09:29;12.43;;;6.80;;
11008;SDS011;5557;51.670;7.788;2023-04-19T04:11:56;9.87;;;7.50;;
11008;SDS011;5557;51.670;7.788;2023-04-19T04:14:23;9.70;;;6.70;;
11008;SDS011;5557;51.670;7.788;2023-04-19T04:16:50;7.40;;;6.73;;
11008;SDS011;5557;51.670;7.788;2023-04-19T04:19:17;8.17;;;7.20;;
11008;SDS011;5557;51.670;7.788;2023-04-19T04:21:47;9.83;;;8.10;;
11008;SDS011;5557;51.670;7.788;2023-04-19T04:24:14;7.50;;;6.90;;
11008;SDS011;5557;51.670;7.788;2023-04-19T04:26:43;8.67;;;7.87;;
11008;SDS011;5557;51.670;7.788;2023-04-19T04:29:10;14.60;;;7.07;;
11008;SDS011;5557;51.670;7.788;2023-04-19T04:31:37;7.53;;;6.93;;
11008;SDS011;5557;51.670;7.788;2023-04-19T04:34:06;10.43;;;7.47;;
11008;SDS011;5557;51.670;7.788;2023-04-19T04:36:35;7.70;;;6.87;;
11008;SDS011;5557;51.670;7.788;2023-04-19T04:39:03;11.67;;;7.70;;
11008;SDS011;5557;51.670;7.788;2023-04-19T04:41:31;7.80;;;7.03;;
11008;SDS011;5557;51.670;7.788;2023-04-19T04:43:58;11.57;;;7.40;;
11008;SDS011;5557;51.670;7.788;2023-04-19T04:46:29;7.13;;;6.53;;
11008;SDS011;5557;51.670;7.788;2023-04-19T04:48:56;13.40;;;6.50;;
11008;SDS011;5557;51.670;7.788;2023-04-19T04:51:23;7.00;;;6.50;;
11008;SDS011;5557;51.670;7.788;2023-04-19T04:53:50;6.60;;;6.17;;
11008;SDS011;5557;51.670;7.788;2023-04-19T04:56:17;7.40;;;6.80;;
11008;SDS011;5557;51.670;7.788;2023-04-19T04:58:45;6.87;;;6.37;;
11008;SDS011;5557;51.670;7.788;2023-04-19T05:01:11;6.40;;;5.80;;
11008;SDS011;5557;51.670;7.788;2023-04-19T05:03:38;6.10;;;5.53;;
11008;SDS011;5557;51.670;7.788;2023-04-19T05:06:06;6.20;;;5.70;;
11008;SDS011;5557;51.670;7.788;2023-04-19T05:08:33;5.70;;;5.20;;
11008;SDS011;5557;51.670;7.788;2023-04-19T05:10:59;10.90;;;6.50;;
11008;SDS011;5557;51.670;7.788;2023-04-19T05:13:26;5.70;;;5.20;;
11008;SDS011;5557;51.670;7.788;2023-04-19T05:15:53;7.83;;;5.17;;
11008;SDS011;5557;51.670;7.788;2023-04-19T05:18:20;5.40;;;4.83;;
11008;SDS011;5557;51.670;7.788;2023-04-19T05:20:47;7.57;;;5.13;;
11008;SDS011;5557;51.670;7.788;2023-04-19T05:23:14;5.30;;;4.80;;
11008;SDS011;5557;51.670;7.788;2023-04-19T05:25:42;4.93;;;4.50;;
11008;SDS011;5557;51.670;7.788;2023-04-19T05:28:09;9.67;;;5.10;;
11008;SDS011;5557;51.670;7.788;2023-04-19T05:30:36;7.53;;;3.93;;
11008;SDS011;5557;51.670;7.788;2023-04-19T05:33:03;5.60;;;5.10;;
11008;SDS011;5557;51.670;7.788;2023-04-19T05:35:30;4.67;;;4.27;;
11008;SDS011;5557;51.670;7.788;2023-04-19T05:37:57;5.87;;;5.37;;
11008;SDS011;5557;51.670;7.788;2023-04-19T05:40:24;5.03;;;4.03;;
11008;SDS011;5557;51.670;7.788;2023-04-19T05:42:51;4.10;;;3.80;;
11008;SDS011;5557;51.670;7.788;2023-04-19T05:45:20;8.37;;;4.50;;
11008;SDS011;5557;51.670;7.788;2023-04-19T05:47:47;7.07;;;4.50;;
11008;SDS011;5557;51.670;7.788;2023-04-19T05:50:14;15.97;;;4.70;;
11008;SDS011;5557;51.670;7.788;2023-04-19T05:52:43;4.33;;;4.03;;
11008;SDS011;5557;51.670;7.788;2023-04-19T05:55:10;8.73;;;4.00;;
11008;SDS011;5557;51.670;7.788;2023-04-19T05:57:37;6.80;;;4.33;;
11008;SDS011;5557;51.670;7.788;2023-04-19T06:00:04;4.40;;;4.20;;
11008;SDS011;5557;51.670;7.788;2023-04-19T06:02:34;4.00;;;3.70;;
11008;SDS011;5557;51.670;7.788;2023-04-19T06:05:02;8.23;;;5.30;;
11008;SDS011;5557;51.670;7.788;2023-04-19T06:07:35;4.10;;;3.83;;
11008;SDS011;5557;51.670;7.788;2023-04-19T06:10:09;8.33;;;4.30;;
11008;SDS011;5557;51.670;7.788;2023-04-19T06:12:36;4.67;;;4.27;;
11008;SDS011;5557;51.670;7.788;2023-04-19T06:15:03;3.83;;;3.50;;
11008;SDS011;5557;51.670;7.788;2023-04-19T06:17:31;6.17;;;3.90;;
11008;SDS011;5557;51.670;7.788;2023-04-19T06:19:57;7.07;;;3.47;;
11008;SDS011;5557;51.670;7.788;2023-04-19T06:22:24;4.10;;;3.90;;
11008;SDS011;5557;51.670;7.788;2023-04-19T06:24:51;3.70;;;2.87;;
11008;SDS011;5557;51.670;7.788;2023-04-19T06:27:18;3.93;;;3.40;;
11008;SDS011;5557;51.670;7.788;2023-04-19T06:29:45;7.70;;;3.40;;
11008;SDS011;5557;51.670;7.788;2023-04-19T06:32:15;5.63;;;3.40;;
11008;SDS011;5557;51.670;7.788;2023-04-19T06:34:45;3.23;;;3.03;;
11008;SDS011;5557;51.670;7.788;2023-04-19T06:37:12;3.70;;;3.40;;
11008;SDS011;5557;51.670;7.788;2023-04-19T06:39:40;3.80;;;3.60;;
11008;SDS011;5557;51.670;7.788;2023-04-19T06:42:07;4.27;;;3.97;;
11008;SDS011;5557;51.670;7.788;2023-04-19T06:44:34;3.27;;;2.97;;
11008;SDS011;5557;51.670;7.788;2023-04-19T06:47:01;3.00;;;2.90;;
11008;SDS011;5557;51.670;7.788;2023-04-19T06:49:28;5.50;;;3.40;;
11008;SDS011;5557;51.670;7.788;2023-04-19T06:51:55;21.87;;;3.50;;
11008;SDS011;5557;51.670;7.788;2023-04-19T06:54:23;11.37;;;3.53;;
11008;SDS011;5557;51.670;7.788;2023-04-19T06:56:50;5.53;;;3.17;;
11008;SDS011;5557;51.670;7.788;2023-04-19T06:59:18;4.30;;;4.00;;
11008;SDS011;5557;51.670;7.788;2023-04-19T07:01:46;3.47;;;3.27;;
11008;SDS011;5557;51.670;7.788;2023-04-19T07:04:13;3.60;;;3.30;;
11008;SDS011;5557;51.670;7.788;2023-04-19T07:06:41;4.10;;;2.70;;
11008;SDS011;5557;51.670;7.788;2023-04-19T07:09:08;6.60;;;2.87;;
11008;SDS011;5557;51.670;7.788;2023-04-19T07:11:36;2.63;;;2.43;;
11008;SDS011;5557;51.670;7.788;2023-04-19T07:14:03;13.60;;;3.33;;
11008;SDS011;5557;51.670;7.788;2023-04-19T07:16:29;4.20;;;2.63;;
11008;SDS011;5557;51.670;7.788;2023-04-19T07:18:57;3.70;;;2.93;;
11008;SDS011;5557;51.670;7.788;2023-04-19T07:21:24;2.93;;;2.70;;
11008;SDS011;5557;51.670;7.788;2023-04-19T07:23:53;4.93;;;3.03;;
11008;SDS011;5557;51.670;7.788;2023-04-19T07:26:20;5.87;;;2.60;;
11008;SDS011;5557;51.670;7.788;2023-04-19T07:28:47;3.37;;;2.53;;
11008;SDS011;5557;51.670;7.788;2023-04-19T07:31:16;2.60;;;2.50;;
11008;SDS011;5557;51.670;7.788;2023-04-19T07:33:52;2.63;;;2.10;;
11008;SDS011;5557;51.670;7.788;2023-04-19T07:36:19;6.57;;;2.93;;
11008;SDS011;5557;51.670;7.788;2023-04-19T07:38:46;3.93;;;2.60;;
11008;SDS011;5557;51.670;7.788;2023-04-19T07:41:13;1.93;;;1.83;;
11008;SDS011;5557;51.670;7.788;2023-04-19T07:43:40;11.73;;;2.10;;
11008;SDS011;5557;51.670;7.788;2023-04-19T07:46:08;4.70;;;2.17;;
11008;SDS011;5557;51.670;7.788;2023-04-19T07:48:36;6.03;;;1.93;;
11008;SDS011;5557;51.670;7.788;2023-04-19T07:51:07;2.23;;;2.03;;
11008;SDS011;5557;51.670;7.788;2023-04-19T07:53:38;2.27;;;1.83;;
11008;SDS011;5557;51.670;7.788;2023-04-19T07:56:07;4.93;;;2.27;;
11008;SDS011;5557;51.670;7.788;2023-04-19T07:58:38;2.30;;;2.20;;
11008;SDS011;5557;51.670;7.788;2023-04-19T08:01:04;4.40;;;2.00;;
11008;SDS011;5557;51.670;7.788;2023-04-19T08:03:32;3.90;;;2.20;;
11008;SDS011;5557;51.670;7.788;2023-04-19T08:06:00;3.43;;;2.60;;
11008;SDS011;5557;51.670;7.788;2023-04-19T08:08:28;2.60;;;1.97;;
11008;SDS011;5557;51.670;7.788;2023-04-19T08:10:55;6.33;;;2.20;;
11008;SDS011;5557;51.670;7.788;2023-04-19T08:13:22;4.70;;;2.70;;
11008;SDS011;5557;51.670;7.788;2023-04-19T08:15:50;2.60;;;2.40;;
11008;SDS011;5557;51.670;7.788;2023-04-19T08:18:37;2.23;;;2.03;;
11008;SDS011;5557;51.670;7.788;2023-04-19T08:21:04;7.83;;;1.97;;
11008;SDS011;5557;51.670;7.788;2023-04-19T08:23:31;2.50;;;2.30;;
11008;SDS011;5557;51.670;7.788;2023-04-19T08:26:12;2.53;;;2.13;;
11008;SDS011;5557;51.670;7.788;2023-04-19T08:28:39;2.17;;;2.07;;
11008;SDS011;5557;51.670;7.788;2023-04-19T08:31:07;2.30;;;2.13;;
11008;SDS011;5557;51.670;7.788;2023-04-19T08:36:08;8.13;;;2.83;;
11008;SDS011;5557;51.670;7.788;2023-04-19T08:38:36;2.77;;;2.50;;
11008;SDS011;5557;51.670;7.788;2023-04-19T08:41:04;3.07;;;2.77;;
11008;SDS011;5557;51.670;7.788;2023-04-19T08:43:31;12.13;;;2.67;;
11008;SDS011;5557;51.670;7.788;2023-04-19T08:46:04;2.30;;;2.10;;
11008;SDS011;5557;51.670;7.788;2023-04-19T08:48:33;3.10;;;2.90;;
11008;SDS011;5557;51.670;7.788;2023-04-19T08:51:02;3.97;;;2.00;;
11008;SDS011;5557;51.670;7.788;2023-04-19T08:53:34;2.60;;;2.33;;
11008;SDS011;5557;51.670;7.788;2023-04-19T08:56:02;3.63;;;2.37;;
11008;SDS011;5557;51.670;7.788;2023-04-19T08:58:49;2.30;;;2.00;;
11008;SDS011;5557;51.670;7.788;2023-04-19T09:01:36;2.13;;;2.03;;
11008;SDS011;5557;51.670;7.788;2023-04-19T09:04:03;9.43;;;2.50;;
11008;SDS011;5557;51.670;7.788;2023-04-19T09:06:51;2.00;;;1.90;;
11008;SDS011;5557;51.670;7.788;2023-04-19T09:09:25;1.50;;;1.40;;
11008;SDS011;5557;51.670;7.788;2023-04-19T09:12:15;4.00;;;2.27;;
11008;SDS011;5557;51.670;7.788;2023-04-19T09:14:45;2.20;;;2.00;;
11008;SDS011;5557;51.670;7.788;2023-04-19T09:17:27;6.40;;;2.60;;
11008;SDS011;5557;51.670;7.788;2023-04-19T09:19:56;6.87;;;2.20;;
11008;SDS011;5557;51.670;7.788;2023-04-19T09:22:24;6.90;;;2.40;;
11008;SDS011;5557;51.670;7.788;2023-04-19T09:24:51;3.00;;;2.40;;
11008;SDS011;5557;51.670;7.788;2023-04-19T09:27:31;8.47;;;2.33;;
11008;SDS011;5557;51.670;7.788;2023-04-19T09:30:02;2.10;;;2.00;;
11008;SDS011;5557;51.670;7.788;2023-04-19T09:32:44;2.20;;;2.10;;
11008;SDS011;5557;51.670;7.788;2023-04-19T09:35:13;2.30;;;2.20;;
11008;SDS011;5557;51.670;7.788;2023-04-19T09:38:05;6.33;;;2.00;;
11008;SDS011;5557;51.670;7.788;2023-04-19T09:40:32;2.40;;;2.07;;
11008;SDS011;5557;51.670;7.788;2023-04-19T09:43:00;2.37;;;2.20;;
11008;SDS011;5557;51.670;7.788;2023-04-19T09:45:48;3.40;;;2.40;;
11008;SDS011;5557;51.670;7.788;2023-04-19T09:48:15;5.13;;;2.30;;
11008;SDS011;5557;51.670;7.788;2023-04-19T09:50:55;2.80;;;1.90;;
11008;SDS011;5557;51.670;7.788;2023-04-19T09:53:30;2.57;;;2.37;;
11008;SDS011;5557;51.670;7.788;2023-04-19T09:56:00;2.33;;;1.80;;
11008;SDS011;5557;51.670;7.788;2023-04-19T09:58:29;9.00;;;2.90;;
11008;SDS011;5557;51.670;7.788;2023-04-19T10:01:15;1.90;;;1.80;;
11008;SDS011;5557;51.670;7.788;2023-04-19T10:03:44;4.17;;;2.20;;
11008;SDS011;5557;51.670;7.788;2023-04-19T10:06:15;2.50;;;2.40;;
11008;SDS011;5557;51.670;7.788;2023-04-19T10:08:49;4.30;;;2.57;;
11008;SDS011;5557;51.670;7.788;2023-04-19T10:11:19;3.33;;;2.73;;
11008;SDS011;5557;51.670;7.788;2023-04-19T10:13:52;3.60;;;2.53;;
11008;SDS011;5557;51.670;7.788;2023-04-19T10:16:24;2.33;;;2.13;;
11008;SDS011;5557;51.670;7.788;2023-04-19T10:18:52;2.90;;;2.50;;
11008;SDS011;5557;51.670;7.788;2023-04-19T10:21:20;2.97;;;2.57;;
11008;SDS011;5557;51.670;7.788;2023-04-19T10:23:47;6.63;;;2.53;;
11008;SDS011;5557;51.670;7.788;2023-04-19T10:26:15;2.83;;;2.63;;
11008;SDS011;5557;51.670;7.788;2023-04-19T10:28:42;2.60;;;2.40;;
11008;SDS011;5557;51.670;7.788;2023-04-19T10:31:12;9.90;;;2.80;;
11008;SDS011;5557;51.670;7.788;2023-04-19T10:33:40;3.43;;;2.77;;
11008;SDS011;5557;51.670;7.788;2023-04-19T10:36:08;3.40;;;3.13;;
11008;SDS011;5557;51.670;7.788;2023-04-19T10:41:20;4.47;;;2.80;;
11008;SDS011;5557;51.670;7.788;2023-04-19T10:46:41;3.30;;;3.10;;
11008;SDS011;5557;51.670;7.788;2023-04-19T10:49:08;2.93;;;2.73;;
11008;SDS011;5557;51.670;7.788;2023-04-19T10:51:38;3.83;;;3.10;;
11008;SDS011;5557;51.670;7.788;2023-04-19T10:54:09;4.87;;;3.57;;
11008;SDS011;5557;51.670;7.788;2023-04-19T10:57:09;3.03;;;2.87;;
11008;SDS011;5557;51.670;7.788;2023-04-19T10:59:37;3.50;;;3.20;;
11008;SDS011;5557;51.670;7.788;2023-04-19T11:02:25;2.93;;;2.73;;
11008;SDS011;5557;51.670;7.788;2023-04-19T11:04:58;3.37;;;3.17;;
11008;SDS011;5557;51.670;7.788;2023-04-19T11:07:26;4.37;;;3.10;;
11008;SDS011;5557;51.670;7.788;2023-04-19T11:09:53;3.33;;;3.03;;
11008;SDS011;5557;51.670;7.788;2023-04-19T11:12:20;3.53;;;3.33;;
11008;SDS011;5557;51.670;7.788;2023-04-19T11:14:51;3.43;;;3.23;;
11008;SDS011;5557;51.670;7.788;2023-04-19T11:17:23;5.20;;;3.43;;
11008;SDS011;5557;51.670;7.788;2023-04-19T11:20:00;6.67;;;3.37;;
11008;SDS011;5557;51.670;7.788;2023-04-19T11:22:37;3.90;;;3.50;;
11008;SDS011;5557;51.670;7.788;2023-04-19T11:25:15;10.23;;;3.63;;
11008;SDS011;5557;51.670;7.788;2023-04-19T11:27:45;3.70;;;3.33;;
11008;SDS011;5557;51.670;7.788;2023-04-19T11:30:19;2.90;;;2.80;;
11008;SDS011;5557;51.670;7.788;2023-04-19T11:32:52;5.73;;;3.30;;
11008;SDS011;5557;51.670;7.788;2023-04-19T11:35:24;7.70;;;3.20;;
11008;SDS011;5557;51.670;7.788;2023-04-19T11:37:57;3.80;;;3.27;;
11008;SDS011;5557;51.670;7.788;2023-04-19T11:40:24;3.60;;;3.40;;
11008;SDS011;5557;51.670;7.788;2023-04-19T11:42:56;4.13;;;2.70;;
11008;SDS011;5557;51.670;7.788;2023-04-19T11:45:36;5.30;;;3.37;;
11008;SDS011;5557;51.670;7.788;2023-04-19T11:48:06;3.40;;;3.10;;
11008;SDS011;5557;51.670;7.788;2023-04-19T11:50:41;4.83;;;3.10;;
11008;SDS011;5557;51.670;7.788;2023-04-19T11:58:36;3.47;;;2.93;;
11008;SDS011;5557;51.670;7.788;2023-04-19T12:01:06;3.97;;;3.67;;
11008;SDS011;5557;51.670;7.788;2023-04-19T12:03:54;4.17;;;3.50;;
11008;SDS011;5557;51.670;7.788;2023-04-19T12:06:24;9.43;;;3.47;;
11008;SDS011;5557;51.670;7.788;2023-04-19T12:08:52;2.90;;;2.70;;
11008;SDS011;5557;51.670;7.788;2023-04-19T12:11:22;2.60;;;2.40;;
11008;SDS011;5557;51.670;7.788;2023-04-19T12:14:08;10.60;;;3.70;;
11008;SDS011;5557;51.670;7.788;2023-04-19T12:16:40;2.70;;;2.60;;
11008;SDS011;5557;51.670;7.788;2023-04-19T12:19:11;7.47;;;3.00;;
11008;SDS011;5557;51.670;7.788;2023-04-19T12:21:46;3.30;;;3.00;;
11008;SDS011;5557;51.670;7.788;2023-04-19T12:24:14;3.30;;;3.03;;
11008;SDS011;5557;51.670;7.788;2023-04-19T12:26:51;3.47;;;3.20;;
11008;SDS011;5557;51.670;7.788;2023-04-19T12:29:21;2.73;;;2.53;;
11008;SDS011;5557;51.670;7.788;2023-04-19T12:31:49;6.23;;;3.17;;
11008;SDS011;5557;51.670;7.788;2023-04-19T12:34:17;3.30;;;3.00;;
11008;SDS011;5557;51.670;7.788;2023-04-19T12:36:44;3.03;;;2.73;;
11008;SDS011;5557;51.670;7.788;2023-04-19T12:39:11;4.43;;;3.13;;
11008;SDS011;5557;51.670;7.788;2023-04-19T12:41:39;12.20;;;3.30;;
11008;SDS011;5557;51.670;7.788;2023-04-19T12:44:06;3.23;;;3.10;;
11008;SDS011;5557;51.670;7.788;2023-04-19T12:46:33;2.63;;;2.53;;
11008;SDS011;5557;51.670;7.788;2023-04-19T12:49:00;6.70;;;2.80;;
11008;SDS011;5557;51.670;7.788;2023-04-19T12:51:27;4.33;;;2.90;;
11008;SDS011;5557;51.670;7.788;2023-04-19T12:53:54;4.27;;;3.43;;
11008;SDS011;5557;51.670;7.788;2023-04-19T12:56:21;4.63;;;2.70;;
11008;SDS011;5557;51.670;7.788;2023-04-19T12:58:47;3.63;;;3.23;;
11008;SDS011;5557;51.670;7.788;2023-04-19T13:01:15;2.53;;;2.33;;
11008;SDS011;5557;51.670;7.788;2023-04-19T13:03:42;3.47;;;3.20;;
11008;SDS011;5557;51.670;7.788;2023-04-19T13:06:09;3.10;;;2.80;;
11008;SDS011;5557;51.670;7.788;2023-04-19T13:08:40;2.70;;;2.50;;
11008;SDS011;5557;51.670;7.788;2023-04-19T13:11:13;8.20;;;2.80;;
11008;SDS011;5557;51.670;7.788;2023-04-19T13:13:41;3.10;;;2.57;;
11008;SDS011;5557;51.670;7.788;2023-04-19T13:16:08;5.03;;;2.53;;
11008;SDS011;5557;51.670;7.788;2023-04-19T13:18:35;3.20;;;3.00;;
11008;SDS011;5557;51.670;7.788;2023-04-19T13:21:02;6.80;;;3.00;;
11008;SDS011;5557;51.670;7.788;2023-04-19T13:23:32;3.97;;;3.40;;
11008;SDS011;5557;51.670;7.788;2023-04-19T13:25:59;4.30;;;2.87;;
11008;SDS011;5557;51.670;7.788;2023-04-19T13:28:26;3.20;;;2.90;;
11008;SDS011;5557;51.670;7.788;2023-04-19T13:30:53;4.67;;;3.60;;
11008;SDS011;5557;51.670;7.788;2023-04-19T13:33:21;4.73;;;2.57;;
11008;SDS011;5557;51.670;7.788;2023-04-19T13:35:48;3.77;;;2.47;;
11008;SDS011;5557;51.670;7.788;2023-04-19T13:38:15;2.53;;;2.30;;
11008;SDS011;5557;51.670;7.788;2023-04-19T13:40:43;3.63;;;2.60;;
11008;SDS011;5557;51.670;7.788;2023-04-19T13:43:10;3.67;;;2.60;;
11008;SDS011;5557;51.670;7.788;2023-04-19T13:45:37;4.47;;;2.43;;
11008;SDS011;5557;51.670;7.788;2023-04-19T13:48:04;2.97;;;2.87;;
11008;SDS011;5557;51.670;7.788;2023-04-19T13:50:31;4.50;;;2.27;;
11008;SDS011;5557;51.670;7.788;2023-04-19T13:52:58;3.17;;;3.07;;
11008;SDS011;5557;51.670;7.788;2023-04-19T13:55:25;2.87;;;2.77;;
11008;SDS011;5557;51.670;7.788;2023-04-19T13:57:52;4.07;;;2.37;;
11008;SDS011;5557;51.670;7.788;2023-04-19T14:00:20;3.20;;;2.10;;
11008;SDS011;5557;51.670;7.788;2023-04-19T14:02:47;2.73;;;2.53;;
11008;SDS011;5557;51.670;7.788;2023-04-19T14:05:17;3.17;;;2.40;;
11008;SDS011;5557;51.670;7.788;2023-04-19T14:07:44;3.23;;;2.40;;
11008;SDS011;5557;51.670;7.788;2023-04-19T14:10:11;2.60;;;2.50;;
11008;SDS011;5557;51.670;7.788;2023-04-19T14:12:38;3.80;;;2.63;;
11008;SDS011;5557;51.670;7.788;2023-04-19T14:15:06;9.00;;;2.87;;
11008;SDS011;5557;51.670;7.788;2023-04-19T14:17:36;2.90;;;2.70;;
11008;SDS011;5557;51.670;7.788;2023-04-19T14:20:03;3.50;;;2.13;;
11008;SDS011;5557;51.670;7.788;2023-04-19T14:22:32;2.33;;;2.23;;
11008;SDS011;5557;51.670;7.788;2023-04-19T14:25:01;4.10;;;2.10;;
11008;SDS011;5557;51.670;7.788;2023-04-19T14:27:29;2.27;;;2.17;;
11008;SDS011;5557;51.670;7.788;2023-04-19T14:29:56;2.37;;;2.27;;
11008;SDS011;5557;51.670;7.788;2023-04-19T14:32:23;3.00;;;2.60;;
11008;SDS011;5557;51.670;7.788;2023-04-19T14:34:53;3.07;;;2.77;;
11008;SDS011;5557;51.670;7.788;2023-04-19T14:37:22;7.10;;;2.10;;
11008;SDS011;5557;51.670;7.788;2023-04-19T14:39:50;6.20;;;3.50;;
11008;SDS011;5557;51.670;7.788;2023-04-19T14:42:17;3.20;;;2.10;;
11008;SDS011;5557;51.670;7.788;2023-04-19T14:44:49;3.13;;;1.90;;
11008;SDS011;5557;51.670;7.788;2023-04-19T14:47:17;3.40;;;2.10;;
11008;SDS011;5557;51.670;7.788;2023-04-19T14:49:45;1.97;;;1.87;;
11008;SDS011;5557;51.670;7.788;2023-04-19T14:52:12;2.90;;;1.63;;
11008;SDS011;5557;51.670;7.788;2023-04-19T14:54:39;3.73;;;1.90;;
11008;SDS011;5557;51.670;7.788;2023-04-19T14:57:07;2.17;;;1.60;;
11008;SDS011;5557;51.670;7.788;2023-04-19T14:59:34;5.00;;;2.17;;
11008;SDS011;5557;51.670;7.788;2023-04-19T15:02:01;4.77;;;1.73;;
11008;SDS011;5557;51.670;7.788;2023-04-19T15:04:29;3.40;;;1.83;;
11008;SDS011;5557;51.670;7.788;2023-04-19T15:06:59;1.73;;;1.63;;
11008;SDS011;5557;51.670;7.788;2023-04-19T15:09:26;3.07;;;1.13;;
11008;SDS011;5557;51.670;7.788;2023-04-19T15:11:53;1.67;;;1.57;;
11008;SDS011;5557;51.670;7.788;2023-04-19T15:14:20;15.80;;;2.00;;
11008;SDS011;5557;51.670;7.788;2023-04-19T15:16:46;10.20;;;2.10;;
11008;SDS011;5557;51.670;7.788;2023-04-19T15:19:14;6.93;;;2.27;;
11008;SDS011;5557;51.670;7.788;2023-04-19T15:21:41;2.67;;;1.77;;
11008;SDS011;5557;51.670;7.788;2023-04-19T15:24:08;2.00;;;1.80;;